Time;durP1;ratioP1;P1;durP2;ratioP2;P2;SDS_P1;SDS_P2;PMS_P1;PMS_P2;Temp;Humidity;BMP_temperature;BMP_pressure;BME280_temperature;BME280_humidity;BME280_pressure;Samples;Min_cycle;Max_cycle;Signal;HPM_P1;HPM_P2
2023/08/16 00:01:57;;;;;;;;;;;24.10;81.60;;;;;;5045468;28;20057;-81
2023/08/16 00:04:24;;;;;;;;;;;24.10;81.70;;;;;;5044465;28;20033;-82
2023/08/16 00:06:51;;;;;;;;;;;24.10;81.80;;;;;;5046549;28;19999;-79
2023/08/16 00:09:17;;;;;;;;;;;24.10;81.90;;;;;;5047318;28;19983;-77
2023/08/16 00:11:44;;;;;;;;;;;24.00;82.00;;;;;;5046595;28;20015;-79
2023/08/16 00:14:11;;;;;;;;;;;24.00;82.20;;;;;;5046505;28;20075;-79
2023/08/16 00:16:38;;;;;;;;;;;24.00;82.30;;;;;;5047474;28;19999;-80
2023/08/16 00:19:05;;;;;;;;;;;24.00;82.50;;;;;;5046720;28;19982;-81
2023/08/16 00:21:31;;;;;;;;;;;24.00;82.70;;;;;;5045381;28;19998;-79
2023/08/16 00:23:58;;;;;;;;;;;23.90;82.90;;;;;;5047206;28;19987;-79
2023/08/16 00:26:25;;;;;;;;;;;23.90;83.10;;;;;;5044828;28;20003;-81
2023/08/16 00:28:51;;;;;;;;;;;23.90;83.30;;;;;;5052476;28;20322;-79
2023/08/16 00:31:19;;;;;;;;;;;23.90;83.50;;;;;;5046062;28;20378;-80
2023/08/16 00:33:46;;;;;;;;;;;23.80;83.60;;;;;;5044009;28;20003;-80
2023/08/16 00:36:13;;;;;;;;;;;23.80;83.80;;;;;;5040302;28;20007;-81
2023/08/16 00:38:42;;;;;;;;;;;23.80;84.00;;;;;;5045062;28;19990;-79
2023/08/16 00:41:09;;;;;;;;;;;23.80;84.10;;;;;;5042773;28;19990;-79
2023/08/16 00:43:35;;;;;;;;;;;23.80;84.30;;;;;;5050987;28;19995;-80
2023/08/16 00:46:02;;;;;;;;;;;23.70;84.30;;;;;;5051607;28;19999;-79
2023/08/16 00:48:30;;;;;;;;;;;23.70;84.50;;;;;;5050892;28;19986;-79
2023/08/16 00:50:57;;;;;;;;;;;23.70;84.80;;;;;;5049055;28;19982;-78
2023/08/16 00:53:25;;;;;;;;;;;23.70;85.60;;;;;;5044482;28;20430;-81
2023/08/16 00:55:51;;;;;;;;;;;23.60;85.00;;;;;;5044639;28;19991;-79
2023/08/16 00:58:18;;;;;;;;;;;23.60;85.00;;;;;;5048543;28;19991;-79
2023/08/16 01:00:45;;;;;;;;;;;23.60;85.10;;;;;;5053850;28;20155;-78
2023/08/16 01:03:11;;;;;;;;;;;23.60;85.20;;;;;;5052222;28;20000;-79
2023/08/16 01:05:38;;;;;;;;;;;23.60;85.30;;;;;;5048378;28;19992;-79
2023/08/16 01:08:06;;;;;;;;;;;23.50;85.40;;;;;;5049317;28;19987;-79
2023/08/16 01:10:36;;;;;;;;;;;23.50;85.50;;;;;;5046590;28;20015;-81
2023/08/16 01:13:06;;;;;;;;;;;23.50;85.60;;;;;;5050007;28;19975;-80
2023/08/16 01:15:37;;;;;;;;;;;23.50;85.70;;;;;;5042564;28;20058;-80
2023/08/16 01:18:04;;;;;;;;;;;23.40;85.80;;;;;;5047513;28;19975;-81
2023/08/16 01:20:31;;;;;;;;;;;23.50;85.90;;;;;;5042946;28;20342;-80
2023/08/16 01:23:01;;;;;;;;;;;23.40;85.90;;;;;;5049385;28;20027;-81
2023/08/16 01:25:35;;;;;;;;;;;23.40;86.00;;;;;;5044834;28;20079;-79
2023/08/16 01:28:03;;;;;;;;;;;23.40;86.10;;;;;;5043227;28;20061;-80
2023/08/16 01:30:31;;;;;;;;;;;23.40;86.20;;;;;;5042473;28;19996;-79
2023/08/16 01:33:05;;;;;;;;;;;23.30;86.20;;;;;;5045638;28;19976;-79
2023/08/16 01:35:32;;;;;;;;;;;23.30;86.30;;;;;;5046088;28;19992;-80
2023/08/16 01:37:59;;;;;;;;;;;23.30;86.30;;;;;;5044174;28;20420;-81
2023/08/16 01:40:27;;;;;;;;;;;23.30;86.40;;;;;;5045176;28;19980;-80
2023/08/16 01:42:54;;;;;;;;;;;23.20;86.40;;;;;;5044522;28;19991;-79
2023/08/16 01:45:22;;;;;;;;;;;23.20;86.50;;;;;;5042563;28;20545;-77
2023/08/16 01:47:49;;;;;;;;;;;23.20;86.60;;;;;;5044536;28;19986;-79
2023/08/16 01:50:16;;;;;;;;;;;23.20;86.60;;;;;;5046901;28;19975;-78
2023/08/16 01:52:43;;;;;;;;;;;23.20;86.70;;;;;;5047574;28;19987;-80
2023/08/16 01:55:09;;;;;;;;;;;23.20;86.70;;;;;;5044048;28;19995;-79
2023/08/16 01:57:36;;;;;;;;;;;23.10;86.60;;;;;;5043842;28;20441;-79
2023/08/16 02:00:04;;;;;;;;;;;23.10;86.70;;;;;;5047433;28;19987;-79
2023/08/16 02:02:32;;;;;;;;;;;23.10;86.80;;;;;;5038920;28;20353;-79
2023/08/16 02:04:58;;;;;;;;;;;23.10;86.80;;;;;;5042440;28;19995;-78
2023/08/16 02:07:25;;;;;;;;;;;23.00;86.90;;;;;;5045310;28;19976;-79
2023/08/16 02:09:51;;;;;;;;;;;23.00;86.90;;;;;;5049315;28;19987;-81
2023/08/16 02:12:18;;;;;;;;;;;23.00;86.90;;;;;;5044591;28;19980;-79
2023/08/16 02:14:44;;;;;;;;;;;23.00;87.00;;;;;;5045892;28;19972;-80
2023/08/16 02:17:11;;;;;;;;;;;23.00;87.10;;;;;;5047472;28;19991;-77
2023/08/16 02:19:41;;;;;;;;;;;23.00;87.10;;;;;;5045368;28;20394;-79
2023/08/16 02:22:07;;;;;;;;;;;23.00;87.20;;;;;;5044397;28;19988;-79
2023/08/16 02:24:34;;;;;;;;;;;23.00;87.20;;;;;;5046387;28;19976;-78
2023/08/16 02:27:01;;;;;;;;;;;22.90;87.20;;;;;;5048597;28;19976;-79
2023/08/16 02:29:27;;;;;;;;;;;22.90;87.30;;;;;;5048658;28;19976;-80
2023/08/16 02:31:54;;;;;;;;;;;22.80;87.20;;;;;;5049440;28;19999;-79
2023/08/16 02:34:20;;;;;;;;;;;22.80;87.20;;;;;;5045574;28;19988;-80
2023/08/16 02:36:48;;;;;;;;;;;22.80;87.30;;;;;;5052423;28;19996;-81
2023/08/16 02:39:14;;;;;;;;;;;22.80;87.40;;;;;;5051629;28;20381;-79
2023/08/16 02:41:41;;;;;;;;;;;22.80;87.40;;;;;;5048774;28;19980;-81
2023/08/16 02:44:08;;;;;;;;;;;22.80;87.50;;;;;;5051335;28;20607;-78
2023/08/16 02:46:34;;;;;;;;;;;22.70;87.50;;;;;;5055627;28;19996;-79
2023/08/16 02:49:01;;;;;;;;;;;22.70;87.50;;;;;;5056005;28;19979;-78
2023/08/16 02:51:27;;;;;;;;;;;22.70;87.60;;;;;;5053398;28;20054;-79
2023/08/16 02:53:55;;;;;;;;;;;22.70;87.60;;;;;;5048286;28;20311;-75
2023/08/16 02:56:22;;;;;;;;;;;22.70;87.70;;;;;;5047340;28;19999;-78
2023/08/16 02:58:48;;;;;;;;;;;22.60;87.70;;;;;;5050534;28;19979;-79
2023/08/16 03:01:15;;;;;;;;;;;22.60;87.70;;;;;;5051060;28;20239;-79
2023/08/16 03:03:42;;;;;;;;;;;22.60;87.70;;;;;;5050320;28;19995;-78
2023/08/16 03:06:08;;;;;;;;;;;22.60;87.80;;;;;;5047709;28;19991;-81
2023/08/16 03:08:35;;;;;;;;;;;22.60;87.80;;;;;;5052385;28;20077;-79
2023/08/16 03:11:03;;;;;;;;;;;22.60;87.90;;;;;;5046548;28;19983;-78
2023/08/16 03:13:29;;;;;;;;;;;22.50;87.90;;;;;;5048521;28;19976;-79
2023/08/16 03:15:56;;;;;;;;;;;22.50;88.00;;;;;;5048388;28;19995;-78
2023/08/16 03:18:22;;;;;;;;;;;22.50;88.10;;;;;;5051222;28;20045;-79
2023/08/16 03:20:49;;;;;;;;;;;22.50;88.20;;;;;;5048811;28;19980;-81
2023/08/16 03:23:16;;;;;;;;;;;22.50;88.30;;;;;;5048671;28;19982;-79
2023/08/16 03:25:44;;;;;;;;;;;22.40;88.40;;;;;;5039916;28;20380;-77
2023/08/16 03:28:12;;;;;;;;;;;22.30;90.10;;;;;;5044583;28;19928;-77
2023/08/16 03:30:38;;;;;;;;;;;22.20;90.10;;;;;;5040367;28;19929;-77
2023/08/16 03:33:06;;;;;;;;;;;22.10;90.20;;;;;;5044072;28;19929;-77
2023/08/16 03:35:32;;;;;;;;;;;22.10;90.30;;;;;;5042341;28;19929;-77
2023/08/16 03:37:59;;;;;;;;;;;22.10;90.30;;;;;;5049130;28;19935;-78
2023/08/16 03:40:25;;;;;;;;;;;22.10;90.30;;;;;;5050010;28;19955;-77
2023/08/16 03:42:52;;;;;;;;;;;22.10;90.40;;;;;;5042755;28;19932;-77
2023/08/16 03:45:24;;;;;;;;;;;22.10;90.40;;;;;;5044254;28;20003;-77
2023/08/16 03:47:51;;;;;;;;;;;22.10;90.40;;;;;;5043544;28;20584;-77
2023/08/16 03:50:17;;;;;;;;;;;22.10;90.40;;;;;;5042454;28;20373;-78
2023/08/16 03:52:44;;;;;;;;;;;22.10;90.40;;;;;;5043045;28;20547;-77
2023/08/16 03:55:10;;;;;;;;;;;22.10;90.40;;;;;;5046719;28;19999;-79
2023/08/16 03:57:37;;;;;;;;;;;22.10;90.40;;;;;;5049815;28;19975;-77
2023/08/16 04:00:06;;;;;;;;;;;22.00;90.40;;;;;;5043357;28;19979;-77
2023/08/16 04:02:34;;;;;;;;;;;22.10;90.40;;;;;;5039410;28;20007;-78
2023/08/16 04:05:08;;;;;;;;;;;22.10;90.40;;;;;;5043938;28;19996;-76
2023/08/16 04:07:35;;;;;;;;;;;22.00;90.30;;;;;;5044727;28;20161;-77
2023/08/16 04:10:01;;;;;;;;;;;22.10;90.40;;;;;;5042100;28;19975;-78
2023/08/16 04:12:28;;;;;;;;;;;22.10;90.50;;;;;;5044283;28;19986;-78
2023/08/16 04:14:54;;;;;;;;;;;22.00;90.50;;;;;;5043440;28;19995;-78
2023/08/16 04:17:21;;;;;;;;;;;22.00;90.50;;;;;;5044427;28;20004;-78
2023/08/16 04:19:49;;;;;;;;;;;21.90;90.50;;;;;;5041671;28;19980;-77
2023/08/16 04:22:15;;;;;;;;;;;22.00;90.70;;;;;;5042785;28;19979;-78
2023/08/16 04:24:42;;;;;;;;;;;22.00;90.70;;;;;;5043950;28;19986;-77
2023/08/16 04:27:09;;;;;;;;;;;22.00;90.80;;;;;;5050880;28;19983;-77
2023/08/16 04:29:35;;;;;;;;;;;21.90;90.80;;;;;;5043964;28;20862;-77
2023/08/16 04:32:02;;;;;;;;;;;21.90;90.80;;;;;;5041741;28;19991;-78
2023/08/16 04:34:28;;;;;;;;;;;21.90;90.90;;;;;;5044215;28;19990;-77
2023/08/16 04:36:56;;;;;;;;;;;21.90;91.00;;;;;;5044754;28;20002;-76
2023/08/16 04:39:23;;;;;;;;;;;21.90;91.10;;;;;;5044855;28;19980;-77
2023/08/16 04:41:49;;;;;;;;;;;21.80;91.10;;;;;;5041373;28;19972;-77
2023/08/16 04:44:16;;;;;;;;;;;21.80;91.10;;;;;;5046051;28;20013;-77
2023/08/16 04:46:42;;;;;;;;;;;21.80;91.20;;;;;;5045916;28;20003;-78
2023/08/16 04:49:09;;;;;;;;;;;21.80;91.30;;;;;;5047139;28;19983;-77
2023/08/16 04:51:36;;;;;;;;;;;21.80;91.20;;;;;;5049334;28;19987;-77
2023/08/16 04:54:04;;;;;;;;;;;21.80;91.30;;;;;;5038649;28;19986;-77
2023/08/16 04:56:30;;;;;;;;;;;21.80;91.30;;;;;;5044146;28;20254;-77
2023/08/16 04:58:57;;;;;;;;;;;21.80;91.30;;;;;;5045431;28;19976;-78
2023/08/16 05:01:23;;;;;;;;;;;21.80;91.40;;;;;;5047393;28;20045;-76
2023/08/16 05:03:51;;;;;;;;;;;21.70;91.30;;;;;;5044546;28;19995;-77
2023/08/16 05:06:18;;;;;;;;;;;21.80;91.40;;;;;;5048033;28;20536;-77
2023/08/16 05:08:45;;;;;;;;;;;21.70;91.40;;;;;;5045483;28;19976;-77
2023/08/16 05:11:13;;;;;;;;;;;21.70;91.40;;;;;;5046611;28;19975;-78
2023/08/16 05:13:39;;;;;;;;;;;21.70;91.40;;;;;;5051594;28;19976;-77
2023/08/16 05:16:06;;;;;;;;;;;21.70;91.40;;;;;;5044046;28;20456;-78
2023/08/16 05:18:32;;;;;;;;;;;21.70;91.50;;;;;;5041680;28;20226;-78
2023/08/16 05:21:00;;;;;;;;;;;21.70;91.50;;;;;;5039002;28;21313;-78
2023/08/16 05:23:27;;;;;;;;;;;21.70;91.50;;;;;;5043355;28;20046;-78
2023/08/16 05:25:53;;;;;;;;;;;21.70;91.50;;;;;;5043886;28;20023;-77
2023/08/16 05:28:21;;;;;;;;;;;21.70;91.60;;;;;;5045255;28;19976;-76
2023/08/16 05:30:48;;;;;;;;;;;21.70;91.60;;;;;;5043723;28;20003;-77
2023/08/16 05:33:14;;;;;;;;;;;21.70;91.60;;;;;;5039339;28;19976;-78
2023/08/16 05:35:41;;;;;;;;;;;21.70;91.60;;;;;;5045520;28;20373;-77
2023/08/16 05:38:07;;;;;;;;;;;21.70;91.70;;;;;;5054527;28;20429;-77
2023/08/16 05:40:34;;;;;;;;;;;21.60;91.60;;;;;;5048085;28;20705;-77
2023/08/16 05:43:01;;;;;;;;;;;21.70;91.70;;;;;;5045026;28;20003;-76
2023/08/16 05:45:30;;;;;;;;;;;21.70;91.70;;;;;;5043166;28;21030;-77
2023/08/16 05:47:56;;;;;;;;;;;21.60;91.70;;;;;;5043084;28;20563;-78
2023/08/16 05:50:23;;;;;;;;;;;21.70;91.80;;;;;;5041440;28;19983;-77
2023/08/16 05:52:50;;;;;;;;;;;21.60;91.80;;;;;;5040861;28;20360;-77
2023/08/16 05:55:16;;;;;;;;;;;21.60;91.70;;;;;;5043868;28;20516;-77
2023/08/16 05:57:43;;;;;;;;;;;21.60;91.80;;;;;;5040920;28;19975;-78
2023/08/16 06:00:10;;;;;;;;;;;21.70;91.80;;;;;;5051331;28;19975;-77
2023/08/16 06:02:38;;;;;;;;;;;21.60;91.80;;;;;;5040248;28;19992;-77
2023/08/16 06:05:05;;;;;;;;;;;21.60;91.80;;;;;;5052171;28;20420;-77
2023/08/16 06:07:32;;;;;;;;;;;21.70;91.80;;;;;;5051792;28;20010;-77
2023/08/16 06:09:58;;;;;;;;;;;21.60;91.70;;;;;;5047474;28;20626;-75
2023/08/16 06:12:25;;;;;;;;;;;21.70;91.80;;;;;;5047053;28;20745;-77
2023/08/16 06:14:51;;;;;;;;;;;21.60;91.70;;;;;;5044075;28;19979;-77
2023/08/16 06:17:18;;;;;;;;;;;21.60;91.70;;;;;;5045193;28;19996;-78
2023/08/16 06:19:46;;;;;;;;;;;21.60;91.80;;;;;;5048499;28;19987;-77
2023/08/16 06:22:13;;;;;;;;;;;21.60;91.80;;;;;;5050373;28;19976;-76
2023/08/16 06:24:40;;;;;;;;;;;21.60;91.80;;;;;;5052174;28;19999;-78
2023/08/16 06:27:08;;;;;;;;;;;21.70;91.80;;;;;;5050233;28;19976;-76
2023/08/16 06:29:35;;;;;;;;;;;21.60;91.80;;;;;;5048640;28;20069;-77
2023/08/16 06:32:02;;;;;;;;;;;21.60;91.80;;;;;;5046806;28;19996;-77
2023/08/16 06:34:29;;;;;;;;;;;21.60;91.80;;;;;;5047236;28;19979;-76
2023/08/16 06:36:57;;;;;;;;;;;21.60;91.80;;;;;;5054515;28;20518;-78
2023/08/16 06:39:23;;;;;;;;;;;21.60;92.10;;;;;;5059392;28;19976;-77
2023/08/16 06:41:50;;;;;;;;;;;21.60;91.80;;;;;;5051038;28;20015;-77
2023/08/16 06:44:17;;;;;;;;;;;21.70;91.90;;;;;;5053562;28;19992;-77
2023/08/16 06:46:44;;;;;;;;;;;21.70;91.90;;;;;;5057776;28;19999;-77
2023/08/16 06:49:10;;;;;;;;;;;21.60;91.90;;;;;;5051807;28;19988;-77
2023/08/16 06:51:37;;;;;;;;;;;21.70;92.00;;;;;;5057255;28;19976;-77
2023/08/16 06:54:05;;;;;;;;;;;21.60;91.90;;;;;;5048714;28;19980;-77
2023/08/16 06:56:31;;;;;;;;;;;21.70;92.00;;;;;;5045311;28;20007;-76
2023/08/16 06:58:58;;;;;;;;;;;21.70;92.00;;;;;;5049604;28;20004;-76
2023/08/16 07:01:24;;;;;;;;;;;21.70;92.00;;;;;;5048481;28;19999;-74
2023/08/16 07:03:51;;;;;;;;;;;21.70;92.10;;;;;;5046072;28;20003;-71
2023/08/16 07:06:18;;;;;;;;;;;21.70;92.00;;;;;;5051711;28;19992;-72
2023/08/16 07:08:44;;;;;;;;;;;21.70;92.00;;;;;;5053103;28;20047;-71
2023/08/16 07:11:12;;;;;;;;;;;21.70;92.10;;;;;;5049679;28;19983;-72
2023/08/16 07:13:39;;;;;;;;;;;21.70;92.20;;;;;;5054447;28;19976;-69
2023/08/16 07:16:05;;;;;;;;;;;21.80;92.20;;;;;;5053334;28;19995;-80
2023/08/16 07:18:32;;;;;;;;;;;21.80;92.20;;;;;;5051849;28;19976;-81
2023/08/16 07:20:59;;;;;;;;;;;21.80;92.30;;;;;;5052809;28;19980;-81
2023/08/16 07:23:25;;;;;;;;;;;21.80;92.30;;;;;;5053294;28;20094;-79
2023/08/16 07:25:54;;;;;;;;;;;21.80;92.30;;;;;;5050058;28;20468;-79
2023/08/16 07:28:22;;;;;;;;;;;21.80;92.30;;;;;;5053182;28;19980;-80
2023/08/16 07:30:52;;;;;;;;;;;21.80;92.30;;;;;;5052740;28;19992;-79
2023/08/16 07:33:18;;;;;;;;;;;21.80;92.50;;;;;;5048843;28;20002;-79
2023/08/16 07:35:45;;;;;;;;;;;21.80;92.40;;;;;;5044198;28;20003;-80
2023/08/16 07:38:12;;;;;;;;;;;21.80;92.30;;;;;;5050038;28;19987;-81
2023/08/16 07:40:38;;;;;;;;;;;21.80;92.30;;;;;;5048836;28;19983;-82
2023/08/16 07:43:05;;;;;;;;;;;21.90;92.30;;;;;;5051398;28;19987;-80
2023/08/16 07:45:33;;;;;;;;;;;21.90;92.30;;;;;;5047808;28;20000;-81
2023/08/16 07:47:59;;;;;;;;;;;21.90;92.30;;;;;;5048031;28;20006;-77
2023/08/16 07:50:26;;;;;;;;;;;21.90;92.40;;;;;;5047794;28;19975;-77
2023/08/16 07:52:52;;;;;;;;;;;21.90;92.30;;;;;;5041544;28;20365;-79
2023/08/16 07:55:19;;;;;;;;;;;21.90;92.40;;;;;;5047165;28;19999;-78
2023/08/16 07:57:46;;;;;;;;;;;21.90;92.40;;;;;;5047660;28;19980;-77
2023/08/16 08:00:14;;;;;;;;;;;22.00;92.40;;;;;;5041207;28;19976;-78
2023/08/16 08:02:42;;;;;;;;;;;22.00;92.40;;;;;;5046610;28;19987;-77
2023/08/16 08:05:09;;;;;;;;;;;22.00;92.50;;;;;;5040368;28;20002;-77
2023/08/16 08:07:35;;;;;;;;;;;22.00;92.50;;;;;;5045628;28;19998;-80
2023/08/16 08:10:02;;;;;;;;;;;22.00;92.50;;;;;;5049236;28;20472;-77
2023/08/16 08:12:30;;;;;;;;;;;22.00;92.50;;;;;;5045159;28;19976;-79
2023/08/16 08:14:57;;;;;;;;;;;22.10;92.60;;;;;;5044207;28;19996;-78
2023/08/16 08:17:24;;;;;;;;;;;22.10;92.60;;;;;;5043257;28;19999;-77
2023/08/16 08:19:52;;;;;;;;;;;22.20;92.60;;;;;;5040799;28;19976;-77
2023/08/16 08:22:18;;;;;;;;;;;22.20;92.70;;;;;;5046536;28;19975;-79
2023/08/16 08:24:45;;;;;;;;;;;22.20;92.70;;;;;;5049594;28;20350;-76
2023/08/16 08:27:11;;;;;;;;;;;22.20;92.70;;;;;;5048268;28;19987;-79
2023/08/16 08:29:39;;;;;;;;;;;22.20;92.60;;;;;;5045261;28;20518;-77
2023/08/16 08:32:06;;;;;;;;;;;22.20;92.60;;;;;;5045509;28;20014;-77
2023/08/16 08:34:33;;;;;;;;;;;22.20;93.00;;;;;;5043251;28;19979;-76
2023/08/16 08:37:01;;;;;;;;;;;22.20;92.60;;;;;;5050660;28;20622;-77
2023/08/16 08:39:28;;;;;;;;;;;22.30;92.70;;;;;;5040412;28;20565;-78
2023/08/16 08:41:55;;;;;;;;;;;22.30;92.60;;;;;;5039668;28;19998;-76
2023/08/16 08:44:22;;;;;;;;;;;22.30;92.60;;;;;;5032719;28;19991;-77
2023/08/16 08:46:49;;;;;;;;;;;22.30;92.60;;;;;;5044156;28;19996;-77
2023/08/16 08:49:16;;;;;;;;;;;22.30;92.70;;;;;;5043825;28;19987;-79
2023/08/16 08:51:43;;;;;;;;;;;22.40;92.80;;;;;;5045938;28;19979;-79
2023/08/16 08:54:11;;;;;;;;;;;22.40;92.70;;;;;;5047015;28;20026;-79
2023/08/16 08:56:38;;;;;;;;;;;22.40;92.70;;;;;;5048144;28;20638;-79
2023/08/16 08:59:04;;;;;;;;;;;22.50;92.70;;;;;;5046660;28;19994;-79
2023/08/16 09:01:31;;;;;;;;;;;22.50;92.60;;;;;;5040607;28;20046;-79
2023/08/16 09:04:00;;;;;;;;;;;22.50;92.50;;;;;;5041869;28;19987;-72
2023/08/16 09:06:26;;;;;;;;;;;22.50;92.50;;;;;;5044826;28;19999;-73
2023/08/16 09:08:53;;;;;;;;;;;22.50;92.40;;;;;;5051175;28;19980;-72
2023/08/16 09:11:21;;;;;;;;;;;22.60;92.40;;;;;;5047287;28;20674;-72
2023/08/16 09:13:48;;;;;;;;;;;22.60;92.40;;;;;;5050176;28;20070;-74
2023/08/16 09:16:15;;;;;;;;;;;22.70;92.30;;;;;;5048116;28;20042;-72
2023/08/16 09:18:46;;;;;;;;;;;22.70;92.30;;;;;;5051538;28;19986;-72
2023/08/16 09:21:14;;;;;;;;;;;22.70;92.30;;;;;;5056416;28;19979;-73
2023/08/16 09:23:40;;;;;;;;;;;22.80;92.30;;;;;;5046833;28;20045;-72
2023/08/16 09:26:13;;;;;;;;;;;22.70;92.30;;;;;;5047390;28;19995;-72
2023/08/16 09:28:41;;;;;;;;;;;22.80;92.20;;;;;;5049825;28;19983;-72
2023/08/16 09:31:07;;;;;;;;;;;22.80;92.10;;;;;;5041544;28;19992;-73
2023/08/16 09:33:34;;;;;;;;;;;22.90;92.10;;;;;;5050518;28;20021;-71
2023/08/16 09:36:03;;;;;;;;;;;22.90;92.00;;;;;;5044131;28;20002;-78
2023/08/16 09:38:29;;;;;;;;;;;23.00;92.00;;;;;;5038683;28;19990;-78
2023/08/16 09:40:56;;;;;;;;;;;23.00;91.90;;;;;;5041983;28;19987;-78
2023/08/16 09:43:22;;;;;;;;;;;23.10;91.90;;;;;;5043459;28;19991;-78
2023/08/16 09:45:51;;;;;;;;;;;23.10;91.80;;;;;;5042866;28;20056;-78
2023/08/16 09:48:19;;;;;;;;;;;23.20;91.80;;;;;;5042405;28;19975;-75
2023/08/16 09:50:46;;;;;;;;;;;23.20;91.70;;;;;;5041510;28;19983;-78
2023/08/16 09:53:13;;;;;;;;;;;23.30;92.30;;;;;;5045760;28;20058;-78
2023/08/16 09:55:41;;;;;;;;;;;23.40;92.90;;;;;;5044403;28;20189;-79
2023/08/16 09:58:08;;;;;;;;;;;23.40;92.80;;;;;;5045992;28;20333;-78
2023/08/16 10:00:34;;;;;;;;;;;23.50;92.60;;;;;;5045341;28;20349;-78
2023/08/16 10:03:03;;;;;;;;;;;23.50;92.40;;;;;;5047806;28;19987;-79
2023/08/16 10:05:30;;;;;;;;;;;23.60;92.20;;;;;;5042506;28;20081;-78
2023/08/16 10:08:00;;;;;;;;;;;23.70;92.10;;;;;;5047758;28;19982;-79
2023/08/16 10:10:27;;;;;;;;;;;23.70;92.00;;;;;;5045140;28;20070;-78
2023/08/16 10:12:54;;;;;;;;;;;23.80;91.90;;;;;;5041025;28;19980;-78
2023/08/16 10:15:20;;;;;;;;;;;23.80;91.80;;;;;;5038871;28;20003;-78
2023/08/16 10:17:49;;;;;;;;;;;23.80;91.50;;;;;;5042189;28;19976;-75
2023/08/16 10:20:21;;;;;;;;;;;23.90;91.30;;;;;;5037431;28;19979;-78
2023/08/16 10:22:51;;;;;;;;;;;24.00;91.20;;;;;;5043060;28;20601;-79
2023/08/16 10:25:23;;;;;;;;;;;24.10;91.10;;;;;;5042922;28;20767;-78
2023/08/16 10:27:51;;;;;;;;;;;24.10;90.80;;;;;;5041958;28;19983;-78
2023/08/16 10:30:19;;;;;;;;;;;24.20;90.70;;;;;;5043569;28;19976;-79
2023/08/16 10:32:47;;;;;;;;;;;24.30;90.60;;;;;;5045296;28;20465;-77
2023/08/16 10:35:14;;;;;;;;;;;24.30;90.50;;;;;;5044031;28;19999;-78
2023/08/16 10:37:46;;;;;;;;;;;24.40;90.50;;;;;;5047713;28;19987;-78
2023/08/16 10:40:16;;;;;;;;;;;24.50;90.40;;;;;;5038204;28;19986;-78
2023/08/16 10:42:49;;;;;;;;;;;24.60;90.20;;;;;;5047491;28;20407;-78
2023/08/16 10:45:21;;;;;;;;;;;24.70;90.10;;;;;;5042949;28;19996;-79
2023/08/16 10:47:48;;;;;;;;;;;24.70;90.00;;;;;;5044170;28;19980;-78
2023/08/16 10:50:14;;;;;;;;;;;24.80;89.80;;;;;;5045388;28;19984;-78
2023/08/16 10:52:44;;;;;;;;;;;24.90;89.70;;;;;;5047959;28;19979;-78
2023/08/16 10:55:11;;;;;;;;;;;24.90;89.40;;;;;;5044193;28;20006;-78
2023/08/16 10:57:39;;;;;;;;;;;25.00;89.30;;;;;;5046953;28;20512;-79
2023/08/16 11:00:07;;;;;;;;;;;25.10;89.00;;;;;;5045913;28;19987;-78
2023/08/16 11:02:36;;;;;;;;;;;25.20;88.60;;;;;;5051994;28;19979;-79
2023/08/16 11:05:03;;;;;;;;;;;25.20;88.30;;;;;;5052454;28;20469;-79
2023/08/16 11:07:31;;;;;;;;;;;25.30;88.00;;;;;;5042750;28;21354;-78
2023/08/16 11:10:00;;;;;;;;;;;25.40;87.70;;;;;;5046767;28;19979;-78
2023/08/16 11:12:31;;;;;;;;;;;25.40;87.60;;;;;;5042637;28;20058;-76
2023/08/16 11:14:57;;;;;;;;;;;25.50;87.40;;;;;;5044618;28;20008;-78
2023/08/16 11:17:25;;;;;;;;;;;25.60;87.30;;;;;;5044516;28;19999;-77
2023/08/16 11:19:53;;;;;;;;;;;25.60;86.80;;;;;;5048227;28;19980;-77
2023/08/16 11:22:21;;;;;;;;;;;25.70;86.70;;;;;;5043352;28;19976;-79
2023/08/16 11:24:48;;;;;;;;;;;25.80;86.50;;;;;;5046196;28;20005;-80
2023/08/16 11:27:21;;;;;;;;;;;25.90;86.20;;;;;;5047200;28;19986;-79
2023/08/16 11:29:48;;;;;;;;;;;26.00;86.10;;;;;;5047960;28;19980;-78
2023/08/16 11:32:15;;;;;;;;;;;26.00;85.50;;;;;;5051395;28;19996;-78
2023/08/16 11:34:41;;;;;;;;;;;26.10;85.40;;;;;;5052986;28;19987;-76
2023/08/16 11:37:08;;;;;;;;;;;26.20;85.30;;;;;;5050207;28;19976;-81
2023/08/16 11:39:36;;;;;;;;;;;26.30;85.20;;;;;;5053137;28;20089;-82
2023/08/16 11:42:02;;;;;;;;;;;26.30;84.90;;;;;;5052500;28;20509;-80
2023/08/16 11:44:39;;;;;;;;;;;26.40;84.40;;;;;;5058340;28;19987;-80
2023/08/16 11:47:09;;;;;;;;;;;26.40;84.10;;;;;;5052255;28;19995;-77
2023/08/16 11:49:36;;;;;;;;;;;26.50;83.90;;;;;;5046187;28;19983;-78
2023/08/16 11:52:03;;;;;;;;;;;26.60;83.90;;;;;;5052991;28;19987;-81
2023/08/16 11:54:29;;;;;;;;;;;26.70;84.20;;;;;;5048749;28;19979;-79
2023/08/16 11:56:56;;;;;;;;;;;26.70;83.60;;;;;;5048219;28;19995;-79
2023/08/16 11:59:26;;;;;;;;;;;26.80;83.30;;;;;;5066545;28;20018;-81
2023/08/16 12:01:55;;;;;;;;;;;26.80;82.90;;;;;;5052128;28;19995;-78
2023/08/16 12:04:21;;;;;;;;;;;26.90;82.70;;;;;;5046071;28;20348;-78
2023/08/16 12:06:48;;;;;;;;;;;27.00;82.70;;;;;;5061695;28;20468;-81
2023/08/16 12:09:15;;;;;;;;;;;27.10;82.50;;;;;;5059669;28;20620;-79
2023/08/16 12:11:42;;;;;;;;;;;27.10;82.30;;;;;;5050043;28;19980;-77
2023/08/16 12:14:09;;;;;;;;;;;27.20;82.00;;;;;;5041936;28;19983;-79
2023/08/16 12:16:36;;;;;;;;;;;27.30;82.20;;;;;;5051233;28;20463;-76
2023/08/16 12:19:04;;;;;;;;;;;27.30;81.90;;;;;;5048202;28;20528;-79
2023/08/16 12:21:30;;;;;;;;;;;27.40;81.60;;;;;;5053976;28;20400;-79
2023/08/16 12:23:57;;;;;;;;;;;27.40;81.50;;;;;;5054646;28;19987;-79
2023/08/16 12:26:23;;;;;;;;;;;27.50;81.20;;;;;;5056697;28;20049;-78
2023/08/16 12:28:50;;;;;;;;;;;27.50;80.70;;;;;;5049252;28;19987;-79
2023/08/16 12:31:16;;;;;;;;;;;27.50;80.70;;;;;;5048293;28;20018;-79
2023/08/16 12:33:43;;;;;;;;;;;27.70;80.70;;;;;;5052750;28;19935;-80
2023/08/16 12:36:12;;;;;;;;;;;28.10;78.60;;;;;;5048103;28;19929;-81
2023/08/16 12:38:39;;;;;;;;;;;28.40;78.70;;;;;;5049320;28;19935;-82
2023/08/16 12:41:07;;;;;;;;;;;28.70;78.70;;;;;;5047182;28;19999;-82
2023/08/16 12:43:33;;;;;;;;;;;29.00;78.80;;;;;;5053844;28;20043;-81
2023/08/16 12:46:05;;;;;;;;;;;29.10;78.70;;;;;;5049877;28;19951;-81
2023/08/16 12:48:32;;;;;;;;;;;29.30;79.20;;;;;;5050809;28;20374;-82
2023/08/16 12:50:58;;;;;;;;;;;29.40;78.10;;;;;;5045594;28;19929;-81
2023/08/16 12:53:30;;;;;;;;;;;29.50;77.90;;;;;;5047017;28;19944;-81
2023/08/16 12:55:57;;;;;;;;;;;29.60;77.70;;;;;;5041937;28;19972;-81
2023/08/16 12:58:23;;;;;;;;;;;29.70;77.20;;;;;;5046915;28;19929;-80
2023/08/16 13:00:50;;;;;;;;;;;29.80;76.70;;;;;;5046661;28;20469;-79
2023/08/16 13:03:16;;;;;;;;;;;29.90;76.60;;;;;;5045622;28;20330;-79
2023/08/16 13:05:43;;;;;;;;;;;29.90;76.40;;;;;;5045343;28;19939;-81
2023/08/16 13:08:10;;;;;;;;;;;30.00;76.30;;;;;;5038433;28;20006;-82
2023/08/16 13:10:38;;;;;;;;;;;30.10;76.10;;;;;;5043771;28;20377;-82
2023/08/16 13:13:06;;;;;;;;;;;30.10;75.80;;;;;;5042421;28;19940;-82
2023/08/16 13:15:33;;;;;;;;;;;30.20;75.40;;;;;;5043702;28;19933;-80
2023/08/16 13:18:00;;;;;;;;;;;30.20;75.00;;;;;;5045957;28;19947;-82
2023/08/16 13:20:27;;;;;;;;;;;30.30;75.00;;;;;;5045309;28;19929;-80
2023/08/16 13:22:54;;;;;;;;;;;30.30;75.00;;;;;;5042995;28;19928;-82
2023/08/16 13:25:20;;;;;;;;;;;30.40;75.10;;;;;;5044196;28;20023;-83
2023/08/16 13:27:48;;;;;;;;;;;30.40;74.80;;;;;;5043120;28;19929;-83
2023/08/16 13:30:15;;;;;;;;;;;30.50;74.30;;;;;;5044144;28;20017;-81
2023/08/16 13:32:41;;;;;;;;;;;30.50;74.40;;;;;;5045793;28;19929;-83
2023/08/16 13:35:08;;;;;;;;;;;30.60;74.40;;;;;;5041023;28;19955;-83
2023/08/16 13:37:35;;;;;;;;;;;30.60;74.20;;;;;;5046495;28;19932;-80
2023/08/16 13:40:01;;;;;;;;;;;30.70;74.30;;;;;;5041522;28;20398;-79
2023/08/16 13:42:28;;;;;;;;;;;30.70;74.50;;;;;;5038221;28;19935;-76
2023/08/16 13:44:56;;;;;;;;;;;30.70;74.50;;;;;;5044750;28;19929;-80
2023/08/16 13:47:22;;;;;;;;;;;30.80;74.40;;;;;;5041605;28;19929;-80
2023/08/16 13:49:49;;;;;;;;;;;30.80;74.30;;;;;;5044026;28;20022;-82
2023/08/16 13:52:16;;;;;;;;;;;30.90;73.90;;;;;;5040973;28;19986;-81
2023/08/16 13:54:42;;;;;;;;;;;31.00;73.80;;;;;;5040472;28;19940;-77
2023/08/16 13:57:09;;;;;;;;;;;31.00;73.60;;;;;;5047336;28;19935;-81
2023/08/16 13:59:35;;;;;;;;;;;31.00;73.60;;;;;;5041957;28;19933;-79
2023/08/16 14:35:38;;;;;;;;;;;31.70;69.70;;;;;;5041337;28;20350;-79
2023/08/16 14:38:05;;;;;;;;;;;31.80;69.50;;;;;;5048199;28;19936;-78
2023/08/16 14:40:31;;;;;;;;;;;31.80;69.30;;;;;;5046352;28;20397;-77
2023/08/16 14:42:58;;;;;;;;;;;31.80;69.20;;;;;;5050133;28;19936;-79
2023/08/16 14:45:25;;;;;;;;;;;31.80;69.60;;;;;;5042861;28;19963;-79
2023/08/16 14:51:32;;;;;;;;;;;31.90;68.90;;;;;;5042642;28;19927;-80
2023/08/16 14:54:01;;;;;;;;;;;31.90;68.70;;;;;;5040320;28;19928;-80